Time;durP1;ratioP1;P1;durP2;ratioP2;P2;SDS_P1;SDS_P2;PMS_P1;PMS_P2;Temp;Humidity;BMP_temperature;BMP_pressure;BME280_temperature;BME280_humidity;BME280_pressure;Samples;Min_cycle;Max_cycle;Signal;HPM_P1;HPM_P2
2024/02/20 00:02:52;;;;;;;5.93;4.30;;;;;;;13.51;59.74;99677.28;6969717;28;20214;-81
2024/02/20 00:06:15;;;;;;;6.17;4.27;;;;;;;13.67;59.58;99677.75;6954012;28;20313;-79
2024/02/20 00:09:36;;;;;;;5.17;4.17;;;;;;;13.60;59.59;99681.47;6942965;28;20314;-79
2024/02/20 00:12:58;;;;;;;6.20;4.17;;;;;;;13.80;59.38;99672.34;6962224;28;20199;-78
2024/02/20 00:16:21;;;;;;;9.07;5.67;;;;;;;13.74;58.98;99683.19;6943257;28;20224;-76
2024/02/20 00:19:43;;;;;;;6.87;5.00;;;;;;;13.72;59.36;99677.97;6968364;28;20226;-80
2024/02/20 00:23:06;;;;;;;7.23;4.47;;;;;;;13.50;59.60;99681.00;6966555;28;20203;-80
2024/02/20 00:26:27;;;;;;;6.87;4.27;;;;;;;13.70;59.63;99684.63;6953468;28;20349;-80
2024/02/20 00:29:49;;;;;;;6.93;4.80;;;;;;;13.42;60.01;99684.75;6954006;28;20698;-79
2024/02/20 00:33:11;;;;;;;6.13;4.53;;;;;;;13.47;59.62;99670.59;6954449;28;20584;-79
2024/02/20 00:36:32;;;;;;;7.00;5.03;;;;;;;13.42;59.65;99671.19;6954460;28;20662;-78
2024/02/20 00:39:56;;;;;;;6.93;4.70;;;;;;;13.49;59.92;99682.03;6963834;28;20227;-81
2024/02/20 00:43:17;;;;;;;6.43;4.50;;;;;;;13.40;60.10;99653.47;6970703;28;20206;-82
2024/02/20 00:46:39;;;;;;;7.00;4.27;;;;;;;13.39;60.10;99674.28;6972978;28;20222;-80
2024/02/20 00:50:00;;;;;;;7.17;5.03;;;;;;;13.52;59.93;99670.81;6971347;28;20680;-79
2024/02/20 00:53:22;;;;;;;6.27;5.30;;;;;;;13.46;60.06;99677.03;6978128;28;20694;-81
2024/02/20 00:56:45;;;;;;;7.20;4.73;;;;;;;13.64;59.52;99675.44;7007288;28;20220;-81
2024/02/20 01:00:13;;;;;;;8.60;5.00;;;;;;;13.07;59.81;99620.84;6966640;28;20588;-82
2024/02/20 01:03:34;;;;;;;7.63;5.27;;;;;;;13.44;59.91;99676.38;6952096;28;20676;-82
2024/02/20 01:06:56;;;;;;;6.90;5.10;;;;;;;13.33;59.97;99672.41;6958794;28;20249;-81
2024/02/20 01:10:17;;;;;;;5.97;4.47;;;;;;;13.55;59.70;99673.09;6976151;28;20198;-81
2024/02/20 01:13:41;;;;;;;6.93;5.37;;;;;;;13.36;59.55;99649.50;6963260;28;20214;-80
2024/02/20 01:17:03;;;;;;;8.70;5.53;;;;;;;13.23;59.97;99650.25;6965963;28;20229;-82
2024/02/20 01:20:24;;;;;;;10.63;7.50;;;;;;;13.63;59.61;99670.22;6970189;28;20214;-82
2024/02/20 01:23:46;;;;;;;6.23;5.33;;;;;;;13.69;59.43;99686.50;6964918;28;20683;-80
2024/02/20 01:27:07;;;;;;;6.33;5.03;;;;;;;13.26;59.84;99649.03;6957921;28;20307;-80
2024/02/20 01:30:30;;;;;;;6.60;4.90;;;;;;;13.36;60.06;99680.13;6960338;28;20701;-79
2024/02/20 01:33:53;;;;;;;7.37;5.07;;;;;;;12.93;61.03;99677.78;6949683;28;20262;-80
2024/02/20 01:37:15;;;;;;;9.13;5.37;;;;;;;13.24;60.33;99689.88;6973146;28;20229;-81
2024/02/20 01:40:37;;;;;;;8.60;4.60;;;;;;;13.26;60.07;99678.81;6953004;28;20289;-81
2024/02/20 01:43:59;;;;;;;5.40;4.33;;;;;;;13.30;60.18;99690.91;6973265;28;20595;-81
2024/02/20 01:47:22;;;;;;;4.60;4.10;;;;;;;13.28;60.24;99690.28;6962503;28;20361;-81
2024/02/20 01:50:44;;;;;;;7.77;5.10;;;;;;;13.38;60.02;99690.75;6964588;28;20206;-81
2024/02/20 01:54:05;;;;;;;5.23;4.30;;;;;;;13.10;60.18;99663.72;6966065;28;20219;-80
2024/02/20 01:57:27;;;;;;;4.90;4.50;;;;;;;13.09;60.67;99683.72;6960721;28;20261;-81
2024/02/20 02:00:48;;;;;;;5.87;5.20;;;;;;;13.11;60.49;99678.94;6973207;28;20720;-80
2024/02/20 02:04:11;;;;;;;7.53;4.37;;;;;;;13.11;60.58;99702.50;6967493;28;20231;-80
2024/02/20 02:07:33;;;;;;;6.80;4.87;;;;;;;13.35;59.96;99702.00;6971647;28;20290;-81
2024/02/20 02:10:54;;;;;;;6.70;4.10;;;;;;;13.33;60.06;99696.78;6959723;28;20289;-82
2024/02/20 02:14:16;;;;;;;4.50;4.10;;;;;;;13.26;59.93;99692.34;6965552;28;20276;-81
2024/02/20 02:17:37;;;;;;;8.27;4.60;;;;;;;12.92;60.79;99695.88;6965763;28;20307;-81
2024/02/20 02:21:00;;;;;;;6.17;4.40;;;;;;;13.12;60.67;99701.44;6957605;28;20690;-81
2024/02/20 02:24:21;;;;;;;8.40;5.10;;;;;;;13.22;60.08;99700.03;6967156;28;20222;-82
2024/02/20 02:27:44;;;;;;;8.20;4.83;;;;;;;13.51;59.86;99705.19;6967057;28;20234;-81
2024/02/20 02:31:06;;;;;;;7.03;5.00;;;;;;;13.43;59.81;99699.94;6973505;28;20244;-81
2024/02/20 02:34:29;;;;;;;10.73;5.47;;;;;;;13.26;60.06;99697.75;6960251;28;20200;-81
2024/02/20 02:37:50;;;;;;;8.53;5.50;;;;;;;12.99;60.92;99718.44;6950607;28;20701;-80
2024/02/20 02:41:12;;;;;;;6.70;5.00;;;;;;;13.07;61.00;99729.13;6960133;28;20321;-81
2024/02/20 02:44:35;;;;;;;10.20;5.67;;;;;;;13.08;60.68;99733.50;6968524;28;20595;-79
2024/02/20 02:47:56;;;;;;;9.17;5.00;;;;;;;12.78;61.17;99733.88;6944635;28;20761;-78
2024/02/20 02:51:18;;;;;;;8.07;4.90;;;;;;;12.69;61.16;99718.81;6952500;28;20289;-80
2024/02/20 02:54:39;;;;;;;7.40;4.80;;;;;;;12.65;61.26;99731.91;6969292;28;20570;-81
2024/02/20 02:58:01;;;;;;;8.30;5.03;;;;;;;13.18;60.00;99739.41;6948620;28;20372;-78
2024/02/20 03:01:25;;;;;;;5.60;4.90;;;;;;;13.17;60.03;99750.44;6945211;28;20450;-78
2024/02/20 03:04:46;;;;;;;6.53;4.43;;;;;;;12.76;60.43;99731.34;6955369;28;20229;-78
2024/02/20 03:08:10;;;;;;;9.33;4.80;;;;;;;12.83;60.28;99744.94;6966653;28;20287;-80
2024/02/20 03:11:32;;;;;;;6.17;4.20;;;;;;;12.91;59.72;99740.22;6965170;28;20212;-78
2024/02/20 03:14:54;;;;;;;7.47;3.73;;;;;;;12.73;60.13;99745.28;6946198;28;20695;-78
2024/02/20 03:18:17;;;;;;;8.30;4.20;;;;;;;12.66;60.24;99743.56;6966136;28;20246;-78
2024/02/20 03:21:39;;;;;;;6.47;4.20;;;;;;;13.01;59.43;99753.44;6946339;28;20402;-78
2024/02/20 03:25:00;;;;;;;8.30;3.97;;;;;;;12.77;59.67;99759.25;6944499;28;20227;-78
2024/02/20 03:28:22;;;;;;;6.67;4.10;;;;;;;12.91;59.24;99766.44;6966832;28;20234;-80
2024/02/20 03:31:44;;;;;;;6.30;3.40;;;;;;;12.83;59.07;99766.59;6971629;28;20221;-78
2024/02/20 03:35:12;;;;;;;7.30;3.97;;;;;;;12.23;59.93;99758.97;6971707;28;20198;-78
2024/02/20 03:38:34;;;;;;;8.43;4.03;;;;;;;12.64;58.88;99786.22;6957487;28;20624;-78
2024/02/20 03:41:55;;;;;;;7.50;4.20;;;;;;;12.77;58.32;99789.03;6970424;28;20289;-78
2024/02/20 03:45:17;;;;;;;8.53;3.30;;;;;;;12.59;58.28;99792.22;6954706;28;20219;-79
2024/02/20 03:48:38;;;;;;;7.83;3.40;;;;;;;12.51;58.72;99800.44;6970443;28;20314;-80
2024/02/20 03:52:01;;;;;;;10.43;3.70;;;;;;;12.40;58.11;99794.72;6970085;28;20285;-78
2024/02/20 03:55:23;;;;;;;11.60;3.90;;;;;;;12.71;57.17;99796.06;6971368;28;20293;-79
2024/02/20 03:58:44;;;;;;;7.27;3.57;;;;;;;12.72;56.58;99805.00;6955708;28;20355;-78
2024/02/20 04:02:06;;;;;;;9.07;4.20;;;;;;;12.81;56.66;99815.50;6943295;28;20365;-78
2024/02/20 04:05:28;;;;;;;6.30;3.70;;;;;;;12.64;57.06;99805.16;6954270;28;20256;-78
2024/02/20 04:08:51;;;;;;;6.43;3.47;;;;;;;12.10;59.27;99823.72;6947797;28;20261;-78
2024/02/20 04:12:12;;;;;;;7.40;3.20;;;;;;;12.19;59.00;99837.94;6943004;28;20207;-78
2024/02/20 04:15:34;;;;;;;5.20;3.57;;;;;;;12.31;58.40;99831.88;6943235;28;20301;-78
2024/02/20 04:18:55;;;;;;;8.43;3.63;;;;;;;12.26;58.28;99828.03;6946886;28;20261;-79
2024/02/20 04:22:17;;;;;;;11.53;4.00;;;;;;;12.40;58.35;99819.88;6942815;28;20290;-79
2024/02/20 04:25:40;;;;;;;9.27;4.47;;;;;;;12.17;59.89;99835.44;6942126;28;20361;-78
2024/02/20 04:29:01;;;;;;;7.07;3.73;;;;;;;12.23;60.10;99844.66;6947977;28;20759;-82
2024/02/20 04:32:23;;;;;;;10.97;4.53;;;;;;;12.33;59.95;99843.31;6971799;28;20202;-81
2024/02/20 04:35:45;;;;;;;11.13;4.07;;;;;;;12.33;59.88;99848.72;6959655;28;20276;-78
2024/02/20 04:39:07;;;;;;;6.63;4.03;;;;;;;12.26;60.24;99846.97;6955447;28;20638;-78
2024/02/20 04:42:30;;;;;;;6.00;3.50;;;;;;;12.24;60.34;99857.16;6969830;28;20256;-78
2024/02/20 04:45:51;;;;;;;7.37;3.80;;;;;;;12.32;59.58;99851.63;6947738;28;20275;-79
2024/02/20 04:49:13;;;;;;;10.47;4.03;;;;;;;12.37;59.65;99862.72;6943791;28;20280;-78
2024/02/20 04:52:34;;;;;;;8.40;4.00;;;;;;;11.87;59.86;99850.03;6979507;28;20292;-80
2024/02/20 04:55:56;;;;;;;8.93;3.93;;;;;;;12.15;59.38;99858.31;6974911;28;20289;-80
2024/02/20 04:59:19;;;;;;;13.63;4.83;;;;;;;12.03;59.18;99868.75;6952895;28;20271;-81
2024/02/20 05:02:42;;;;;;;8.57;3.90;;;;;;;11.72;59.57;99875.38;6953152;28;20214;-80
2024/02/20 05:06:04;;;;;;;7.00;3.43;;;;;;;11.94;59.05;99869.03;6947969;28;20223;-78
2024/02/20 05:09:25;;;;;;;10.00;4.07;;;;;;;11.61;59.19;99846.97;6940892;28;20364;-79
2024/02/20 05:12:47;;;;;;;14.00;3.90;;;;;;;11.77;58.89;99870.25;6941931;28;20207;-79
2024/02/20 05:16:10;;;;;;;8.67;3.47;;;;;;;11.85;59.06;99879.09;6941343;28;20294;-79
2024/02/20 05:19:31;;;;;;;10.20;3.73;;;;;;;12.14;58.53;99872.81;6941062;28;20263;-79
2024/02/20 05:22:53;;;;;;;14.10;3.83;;;;;;;12.14;57.24;99873.69;6941760;28;20318;-79
2024/02/20 05:26:14;;;;;;;11.67;3.80;;;;;;;11.91;57.33;99877.50;6941440;28;20368;-78
2024/02/20 05:29:36;;;;;;;12.00;4.33;;;;;;;12.05;57.33;99882.91;6956881;28;20712;-79
2024/02/20 05:32:58;;;;;;;9.40;4.27;;;;;;;11.96;57.57;99894.00;6968792;28;20343;-80
2024/02/20 05:36:20;;;;;;;13.97;4.50;;;;;;;11.85;57.72;99872.84;6968775;28;20293;-80
2024/02/20 05:39:41;;;;;;;11.37;3.97;;;;;;;12.17;57.25;99894.91;6968104;28;20254;-78
2024/02/20 05:43:03;;;;;;;10.23;3.63;;;;;;;11.86;57.12;99905.09;6968752;28;20296;-79
2024/02/20 05:46:26;;;;;;;5.63;3.40;;;;;;;12.17;57.13;99896.78;6967764;28;20236;-77
2024/02/20 05:49:49;;;;;;;8.57;3.47;;;;;;;12.01;57.02;99900.53;6967416;28;20245;-78
2024/02/20 05:53:10;;;;;;;8.03;3.57;;;;;;;12.42;56.26;99901.69;6967515;28;20300;-78
2024/02/20 05:56:32;;;;;;;10.87;3.70;;;;;;;12.09;56.57;99910.44;6968364;28;20206;-77
2024/02/20 05:59:54;;;;;;;12.27;4.47;;;;;;;11.99;56.79;99899.06;6967244;28;20612;-78
2024/02/20 06:03:15;;;;;;;9.90;4.10;;;;;;;12.20;55.93;99907.22;6959987;28;20285;-79
2024/02/20 06:06:38;;;;;;;15.87;4.00;;;;;;;12.43;55.88;99918.75;6949213;28;20309;-77
2024/02/20 06:10:00;;;;;;;8.83;3.97;;;;;;;12.61;55.34;99911.91;6967376;28;20324;-78
2024/02/20 06:13:21;;;;;;;14.40;4.13;;;;;;;12.14;55.90;99918.78;6966216;28;20705;-77
2024/02/20 06:16:43;;;;;;;11.00;4.73;;;;;;;12.40;55.76;99930.78;6967478;28;20316;-77
2024/02/20 06:20:05;;;;;;;5.77;3.57;;;;;;;12.06;55.76;99930.56;6961234;28;20684;-77
2024/02/20 06:23:28;;;;;;;14.97;4.93;;;;;;;12.45;55.48;99931.06;6940124;28;20211;-78
2024/02/20 06:26:50;;;;;;;12.53;4.00;;;;;;;12.13;55.71;99933.34;6948539;28;20365;-79
2024/02/20 06:30:12;;;;;;;13.83;4.97;;;;;;;12.58;55.55;99924.97;6954374;28;20293;-77
2024/02/20 06:33:34;;;;;;;12.83;4.07;;;;;;;12.39;55.64;99936.41;6942715;28;20210;-78
2024/02/20 06:36:55;;;;;;;14.03;4.43;;;;;;;12.92;55.67;99942.19;6967680;28;20619;-77
2024/02/20 06:40:18;;;;;;;13.03;4.30;;;;;;;12.99;55.24;99947.72;6955294;28;20340;-77
2024/02/20 06:43:40;;;;;;;15.00;4.57;;;;;;;12.71;54.39;99939.50;6967495;28;20252;-76
2024/02/20 06:47:01;;;;;;;9.27;4.30;;;;;;;12.80;54.79;99956.44;6951071;28;20309;-77
2024/02/20 06:50:23;;;;;;;11.40;4.17;;;;;;;12.83;54.91;99951.50;6952144;28;20203;-78
2024/02/20 06:53:44;;;;;;;18.20;4.27;;;;;;;12.48;55.24;99948.78;6940362;28;20385;-77
2024/02/20 06:57:07;;;;;;;14.03;3.77;;;;;;;12.48;55.21;99937.94;6942097;28;20291;-77
2024/02/20 07:00:29;;;;;;;9.97;3.87;;;;;;;12.58;55.11;99955.56;6969858;28;20238;-78
2024/02/20 07:03:52;;;;;;;10.37;3.30;;;;;;;12.17;55.85;99967.91;6963865;28;20259;-78
2024/02/20 07:07:14;;;;;;;7.83;3.53;;;;;;;12.39;55.64;99969.66;6955009;28;20233;-78
2024/02/20 07:10:36;;;;;;;11.60;3.87;;;;;;;12.42;55.46;99972.03;6947604;28;20631;-78
2024/02/20 07:13:58;;;;;;;12.30;3.87;;;;;;;12.62;54.93;99986.63;6961366;28;21001;-79
2024/02/20 07:17:20;;;;;;;12.03;4.33;;;;;;;12.53;55.17;99989.63;6982237;28;20303;-79
2024/02/20 07:20:41;;;;;;;9.17;3.93;;;;;;;11.74;55.60;99859.84;6977600;28;20223;-79
2024/02/20 07:24:03;;;;;;;8.77;4.13;;;;;;;12.62;55.52;99994.75;6980070;28;20661;-77
2024/02/20 07:27:25;;;;;;;10.97;3.63;;;;;;;12.56;54.93;99991.97;6981387;28;20237;-77
2024/02/20 07:30:48;;;;;;;15.07;5.50;;;;;;;12.54;55.21;99988.59;6971461;28;20234;-79
2024/02/20 07:34:09;;;;;;;10.90;3.70;;;;;;;12.36;55.17;99996.25;6959668;28;20199;-78
2024/02/20 07:37:31;;;;;;;10.63;3.83;;;;;;;12.37;54.92;99976.28;6960667;28;20250;-79
2024/02/20 07:40:53;;;;;;;9.23;3.53;;;;;;;12.81;54.62;99985.19;6970542;28;20687;-78
2024/02/20 07:44:15;;;;;;;10.73;3.83;;;;;;;12.67;54.62;100007.69;6960236;28;20234;-78
2024/02/20 07:47:38;;;;;;;9.60;3.37;;;;;;;12.43;54.98;100011.56;6979196;28;20290;-78
2024/02/20 07:50:59;;;;;;;10.07;3.47;;;;;;;12.54;54.39;100018.34;6951564;28;20297;-78
2024/02/20 07:54:21;;;;;;;8.97;3.47;;;;;;;12.78;54.80;100008.06;6942458;28;20207;-78
2024/02/20 07:57:42;;;;;;;7.43;3.53;;;;;;;13.11;53.42;100000.34;6947802;28;20282;-79
2024/02/20 08:01:04;;;;;;;16.40;3.97;;;;;;;12.97;53.86;99979.56;6959542;28;20225;-77
2024/02/20 08:04:27;;;;;;;7.43;3.63;;;;;;;12.77;53.80;99984.72;6981234;28;20276;-78
2024/02/20 08:07:48;;;;;;;9.90;4.00;;;;;;;13.09;53.67;100022.19;6974330;28;20230;-79
2024/02/20 08:11:10;;;;;;;13.30;3.70;;;;;;;12.96;53.75;100018.47;6958800;28;20231;-78
2024/02/20 08:14:32;;;;;;;9.00;4.07;;;;;;;13.31;53.38;100014.91;6945159;28;20288;-78
2024/02/20 08:17:53;;;;;;;14.07;4.30;;;;;;;13.27;53.20;100028.00;6945065;28;20219;-79
2024/02/20 08:21:16;;;;;;;9.73;3.70;;;;;;;13.06;53.64;100025.28;6964291;28;20568;-77
2024/02/20 08:24:38;;;;;;;10.93;3.90;;;;;;;12.94;53.92;100029.50;6969652;28;20830;-77
2024/02/20 08:27:59;;;;;;;13.57;4.07;;;;;;;13.27;53.12;100033.41;6967782;28;20227;-77
2024/02/20 08:31:21;;;;;;;13.80;3.80;;;;;;;12.87;53.31;100006.91;6962788;28;20290;-78
2024/02/20 08:34:43;;;;;;;15.23;3.70;;;;;;;12.87;53.32;100038.56;6941571;28;20341;-79
2024/02/20 08:38:07;;;;;;;14.07;4.23;;;;;;;12.82;53.61;100046.41;6958634;28;20332;-78
2024/02/20 08:41:28;;;;;;;13.90;4.00;;;;;;;12.63;53.95;100044.28;6968796;28;20203;-79
2024/02/20 08:44:50;;;;;;;11.23;3.90;;;;;;;12.89;53.98;100047.31;6969116;28;20689;-77
2024/02/20 08:48:11;;;;;;;16.70;4.23;;;;;;;13.14;53.52;100049.53;6966575;28;20321;-77
2024/02/20 08:51:33;;;;;;;11.30;4.43;;;;;;;12.92;53.45;100046.97;6965300;28;20234;-79
2024/02/20 08:54:56;;;;;;;12.77;4.23;;;;;;;13.33;53.10;100054.31;6943958;28;20245;-79
2024/02/20 09:01:56;;;;;;;10.03;4.03;;;;;;;13.64;51.80;100054.84;6957938;28;20672;-77
2024/02/20 09:05:18;;;;;;;13.43;4.23;;;;;;;14.00;51.68;100062.88;6951750;28;20203;-79
2024/02/20 09:08:39;;;;;;;10.67;4.57;;;;;;;13.87;51.72;100049.22;6949278;28;20238;-78
2024/02/20 09:12:02;;;;;;;10.67;3.87;;;;;;;13.97;51.33;100058.69;6952219;28;20237;-79
2024/02/20 09:15:24;;;;;;;10.73;3.60;;;;;;;13.58;52.59;100057.50;6970749;28;20693;-78
2024/02/20 09:18:45;;;;;;;9.47;3.87;;;;;;;13.78;51.03;100053.09;6947977;28;20309;-78
2024/02/20 09:22:10;;;;;;;15.40;4.60;;;;;;;14.08;51.28;100051.88;6946747;28;20215;-78
2024/02/20 09:25:31;;;;;;;9.90;4.47;;;;;;;14.15;51.28;100064.47;6956870;28;20293;-78
2024/02/20 09:28:56;;;;;;;11.93;4.27;;;;;;;14.11;50.97;100046.88;6974929;28;20274;-79
2024/02/20 09:32:17;;;;;;;14.73;4.33;;;;;;;14.18;49.78;100060.50;6981094;28;20229;-78
2024/02/20 09:35:38;;;;;;;17.97;4.63;;;;;;;14.25;49.53;100067.72;6962113;28;20335;-78
2024/02/20 09:39:03;;;;;;;10.83;4.47;;;;;;;13.96;50.05;100043.47;6956277;28;20362;-79
2024/02/20 09:42:27;;;;;;;15.10;5.47;;;;;;;13.98;51.00;100056.81;6969069;28;20205;-79
2024/02/20 09:45:51;;;;;;;11.63;3.87;;;;;;;13.96;49.84;100054.31;6950300;28;20240;-79
2024/02/20 09:49:13;;;;;;;13.40;4.33;;;;;;;13.99;49.42;100072.06;6955575;28;20223;-79
2024/02/20 09:52:34;;;;;;;11.47;4.70;;;;;;;14.14;49.09;100070.91;6944185;28;20668;-81
2024/02/20 09:55:59;;;;;;;13.50;4.73;;;;;;;13.89;49.96;100061.56;6970110;28;20256;-80
2024/02/20 09:59:20;;;;;;;10.73;4.10;;;;;;;14.40;48.99;100073.84;6967649;28;20269;-80
2024/02/20 10:02:45;;;;;;;11.03;4.00;;;;;;;14.70;47.60;100026.41;6940800;28;20685;-77
2024/02/20 10:06:09;;;;;;;11.70;4.40;;;;;;;14.52;47.50;100072.25;6939725;28;20551;-79
2024/02/20 10:09:31;;;;;;;13.03;3.90;;;;;;;14.52;47.78;100069.53;6939400;28;20376;-79
2024/02/20 10:12:57;;;;;;;12.80;4.33;;;;;;;15.27;47.39;100064.06;6944572;28;20291;-79
2024/02/20 10:16:19;;;;;;;9.50;4.27;;;;;;;15.33;47.32;100060.56;6964432;28;20263;-79
2024/02/20 10:19:42;;;;;;;11.17;3.73;;;;;;;14.84;46.19;100065.31;6956166;28;20323;-79
2024/02/20 10:23:06;;;;;;;10.23;3.87;;;;;;;15.19;46.12;100043.34;6971551;28;20207;-80
2024/02/20 10:26:30;;;;;;;12.53;3.77;;;;;;;15.87;46.12;100063.97;6951835;28;20801;-79
2024/02/20 10:29:52;;;;;;;14.93;5.17;;;;;;;15.62;44.67;100057.47;6962609;28;20723;-80
2024/02/20 10:33:13;;;;;;;10.53;3.47;;;;;;;15.77;44.54;100044.50;6946169;28;20295;-81
2024/02/20 10:36:36;;;;;;;10.07;3.73;;;;;;;15.87;45.00;100061.25;6966260;28;20908;-79
2024/02/20 10:40:05;;;;;;;11.63;3.40;;;;;;;15.96;44.31;100058.13;6950446;28;20259;-79
2024/02/20 10:43:27;;;;;;;6.43;3.67;;;;;;;16.29;43.46;100058.09;6948525;28;20204;-79
2024/02/20 10:46:49;;;;;;;11.10;3.80;;;;;;;16.74;41.97;100057.22;6948428;28;20614;-79
2024/02/20 10:50:11;;;;;;;9.03;3.37;;;;;;;15.88;41.92;100035.72;6968549;28;20258;-79
2024/02/20 10:53:34;;;;;;;8.80;3.77;;;;;;;16.44;41.81;100043.25;6969687;28;20604;-79
2024/02/20 10:56:55;;;;;;;9.37;3.33;;;;;;;16.09;41.04;100047.22;6954932;28;20230;-80
2024/02/20 11:00:18;;;;;;;10.83;4.00;;;;;;;16.47;40.27;100058.31;6971911;28;20289;-79
2024/02/20 11:03:41;;;;;;;11.17;4.43;;;;;;;16.65;38.46;100051.16;6977186;28;20205;-79
2024/02/20 11:07:03;;;;;;;9.33;4.10;;;;;;;16.42;40.09;100055.38;6972193;28;20370;-80
2024/02/20 11:10:26;;;;;;;13.13;3.93;;;;;;;16.83;40.48;100047.75;6955721;28;20201;-79
2024/02/20 11:13:57;;;;;;;11.63;3.90;;;;;;;15.91;41.55;100051.63;6958335;28;20202;-79
2024/02/20 11:17:18;;;;;;;8.37;3.40;;;;;;;16.24;41.77;100038.84;6977822;28;20227;-78
2024/02/20 11:20:40;;;;;;;9.33;3.80;;;;;;;15.96;42.35;100052.69;6956130;28;20208;-79
2024/02/20 11:24:12;;;;;;;9.57;4.13;;;;;;;15.81;42.23;100000.34;6964690;28;20582;-79
2024/02/20 11:27:45;;;;;;;11.07;4.13;;;;;;;15.33;43.55;100044.25;6965502;28;20262;-79
2024/02/20 11:31:07;;;;;;;10.90;3.73;;;;;;;15.65;43.02;100032.56;6975493;28;20317;-80
2024/02/20 11:34:33;;;;;;;14.77;4.20;;;;;;;16.46;41.53;100032.16;6946514;28;20341;-79
2024/02/20 11:37:55;;;;;;;12.13;3.43;;;;;;;16.76;40.89;100028.69;6944189;28;20291;-81
2024/02/20 11:41:17;;;;;;;11.77;3.60;;;;;;;16.34;40.72;100012.84;6965164;28;20251;-80
2024/02/20 11:44:40;;;;;;;8.00;3.50;;;;;;;16.81;39.66;100017.16;6952590;28;20233;-79
2024/02/20 11:48:02;;;;;;;11.60;3.53;;;;;;;15.91;40.92;100021.69;6943697;28;20275;-77
2024/02/20 11:51:25;;;;;;;8.07;3.23;;;;;;;16.14;39.97;100006.63;6965004;28;20208;-77
2024/02/20 11:54:46;;;;;;;9.00;3.40;;;;;;;15.80;40.33;100017.72;6965160;28;20299;-78
2024/02/20 11:58:08;;;;;;;7.87;3.40;;;;;;;15.56;40.95;100017.50;6969888;28;20314;-78
2024/02/20 12:01:34;;;;;;;9.13;2.83;;;;;;;16.02;39.24;99956.63;6951496;28;20193;-80
2024/02/20 12:04:57;;;;;;;14.13;3.43;;;;;;;15.75;40.57;100000.38;6971687;28;20266;-79
2024/02/20 12:08:19;;;;;;;10.97;3.37;;;;;;;15.95;40.10;99999.31;6970194;28;20239;-79
2024/02/20 12:11:49;;;;;;;11.73;3.67;;;;;;;15.56;39.96;100002.03;6961107;28;20286;-78
2024/02/20 12:15:11;;;;;;;8.60;2.97;;;;;;;15.66;41.45;100001.63;6962971;28;20192;-77
2024/02/20 12:18:34;;;;;;;9.07;3.30;;;;;;;14.14;43.41;99969.72;6946508;28;20228;-80
2024/02/20 12:22:03;;;;;;;8.90;3.50;;;;;;;14.75;43.74;99999.50;6953414;28;20212;-77
2024/02/20 12:25:24;;;;;;;12.23;3.53;;;;;;;15.08;42.30;99989.59;6945677;28;20202;-76
2024/02/20 12:28:47;;;;;;;8.37;3.20;;;;;;;15.06;43.00;99972.66;6969307;28;20605;-79
2024/02/20 12:32:08;;;;;;;7.57;3.03;;;;;;;14.85;41.60;99977.38;6975549;28;20210;-79
2024/02/20 12:35:31;;;;;;;9.33;3.30;;;;;;;14.50;42.44;99987.50;6963536;28;20286;-79
2024/02/20 12:38:53;;;;;;;6.63;3.50;;;;;;;14.72;41.59;99986.34;6941545;28;20282;-79
2024/02/20 12:42:17;;;;;;;9.03;3.13;;;;;;;15.17;41.00;99982.91;6942576;28;20205;-79
2024/02/20 12:45:39;;;;;;;6.23;2.87;;;;;;;15.12;40.62;99995.44;6959189;28;20231;-81
2024/02/20 12:49:01;;;;;;;5.47;2.80;;;;;;;15.34;40.98;99980.69;6969317;28;20444;-79
2024/02/20 12:52:24;;;;;;;5.63;2.60;;;;;;;14.99;40.61;99974.50;6951785;28;20228;-80
2024/02/20 12:55:45;;;;;;;5.57;2.70;;;;;;;15.08;41.20;99961.56;6946253;28;20225;-81
2024/02/20 12:59:08;;;;;;;10.53;3.00;;;;;;;14.51;41.34;99964.72;6959371;28;20280;-81
2024/02/20 13:02:29;;;;;;;9.90;2.97;;;;;;;14.19;41.65;99965.41;6976202;28;20215;-80
2024/02/20 13:05:51;;;;;;;5.53;2.70;;;;;;;14.91;41.21;99947.53;6971704;28;20707;-81
2024/02/20 13:09:16;;;;;;;9.07;3.33;;;;;;;14.85;40.69;99942.94;6948055;28;20240;-79
2024/02/20 13:12:37;;;;;;;7.93;3.20;;;;;;;15.64;40.01;99962.94;6955737;28;20210;-78
2024/02/20 13:15:59;;;;;;;16.50;3.13;;;;;;;15.56;40.72;99960.41;6957638;28;20692;-78
2024/02/20 13:19:20;;;;;;;8.97;3.53;;;;;;;14.89;39.95;99887.19;6975229;28;20291;-79
2024/02/20 13:22:43;;;;;;;3.43;2.47;;;;;;;15.77;38.81;99952.03;6972913;28;20277;-78
2024/02/20 13:26:06;;;;;;;8.80;2.83;;;;;;;15.86;39.10;99948.09;6968254;28;20208;-78
2024/02/20 13:29:29;;;;;;;9.70;4.27;;;;;;;15.90;38.79;99949.31;6958460;28;20311;-80
2024/02/20 13:32:51;;;;;;;11.23;3.13;;;;;;;14.92;40.43;99951.94;6976109;28;20207;-80
2024/02/20 13:36:12;;;;;;;9.20;3.17;;;;;;;15.75;38.92;99940.56;6997471;28;20200;-80
2024/02/20 13:39:34;;;;;;;10.13;3.63;;;;;;;15.84;38.32;99933.84;7002568;28;20255;-81
2024/02/20 13:43:00;;;;;;;8.63;2.57;;;;;;;15.30;37.92;99911.44;6975230;28;20211;-80
2024/02/20 13:46:22;;;;;;;8.30;3.47;;;;;;;15.47;38.55;99935.34;6964581;28;20256;-80
2024/02/20 13:49:44;;;;;;;7.63;2.70;;;;;;;16.27;37.28;99933.13;6959801;28;20235;-80
2024/02/20 13:53:05;;;;;;;7.17;2.77;;;;;;;16.17;37.69;99924.56;6971479;28;20215;-79
2024/02/20 13:56:27;;;;;;;9.90;3.13;;;;;;;15.83;38.45;99924.00;6942393;28;20204;-78
2024/02/20 13:59:49;;;;;;;6.97;3.17;;;;;;;15.61;38.76;99931.56;6941008;28;20331;-80
2024/02/20 14:03:12;;;;;;;7.37;3.37;;;;;;;15.21;39.16;99916.25;6944069;28;20735;-77
2024/02/20 14:06:35;;;;;;;7.93;3.10;;;;;;;16.12;38.76;99908.06;6941581;28;20212;-77
2024/02/20 14:09:56;;;;;;;7.80;3.00;;;;;;;15.98;38.29;99900.13;6945317;28;20230;-78
2024/02/20 14:13:17;;;;;;;8.63;3.37;;;;;;;15.72;38.88;99890.16;6951636;28;20204;-80
2024/02/20 14:16:40;;;;;;;8.30;3.80;;;;;;;16.31;39.12;99889.97;6951172;28;20219;-81
2024/02/20 14:20:04;;;;;;;6.50;3.37;;;;;;;15.83;39.47;99900.38;6952027;28;20232;-79
2024/02/20 14:23:25;;;;;;;7.00;3.23;;;;;;;15.68;39.08;99894.31;6951575;28;20231;-80
2024/02/20 14:26:47;;;;;;;10.57;3.43;;;;;;;15.83;39.05;99910.41;6968359;28;20228;-80
2024/02/20 14:30:09;;;;;;;10.57;3.80;;;;;;;16.16;38.95;99903.84;6979633;28;20226;-79
2024/02/20 14:33:32;;;;;;;9.23;3.33;;;;;;;15.66;39.11;99914.63;6980141;28;20748;-80
2024/02/20 14:36:54;;;;;;;8.30;3.63;;;;;;;16.27;39.35;99910.53;6981657;28;20239;-80
2024/02/20 14:40:16;;;;;;;10.53;3.33;;;;;;;15.76;39.23;99894.09;6978195;28;20275;-79
2024/02/20 14:43:37;;;;;;;4.93;3.17;;;;;;;15.42;40.09;99898.94;6979701;28;20223;-80
2024/02/20 14:46:59;;;;;;;5.53;3.07;;;;;;;15.64;39.87;99881.38;6977517;28;20258;-79
2024/02/20 14:50:23;;;;;;;4.23;3.13;;;;;;;15.71;39.62;99895.78;6980151;28;20227;-80
2024/02/20 14:53:44;;;;;;;11.57;3.87;;;;;;;15.55;39.77;99901.66;6978465;28;20209;-78
2024/02/20 14:57:06;;;;;;;5.73;3.40;;;;;;;15.66;39.71;99904.59;6978808;28;20238;-81
2024/02/20 15:00:28;;;;;;;8.53;3.50;;;;;;;16.07;39.66;99910.56;6978026;28;20201;-80
2024/02/20 15:03:49;;;;;;;8.13;3.20;;;;;;;16.03;39.37;99898.44;6979904;28;20216;-81
2024/02/20 15:07:14;;;;;;;5.70;3.27;;;;;;;15.95;39.58;99906.84;6980637;28;20295;-79
2024/02/20 15:10:35;;;;;;;7.43;3.00;;;;;;;15.74;39.69;99901.63;6980204;28;20308;-78
2024/02/20 15:13:57;;;;;;;8.90;3.47;;;;;;;15.15;40.49;99917.09;6971845;28;20298;-80
2024/02/20 15:17:19;;;;;;;7.87;3.97;;;;;;;15.13;39.28;99897.44;6969015;28;20969;-80
2024/02/20 15:20:41;;;;;;;6.90;3.33;;;;;;;15.41;38.62;99914.44;6975254;28;20200;-79
2024/02/20 15:24:04;;;;;;;6.07;3.13;;;;;;;15.40;38.37;99907.31;6979667;28;20262;-81
2024/02/20 15:27:28;;;;;;;6.10;3.27;;;;;;;15.70;38.47;99905.00;6979432;28;20246;-80
2024/02/20 15:30:49;;;;;;;7.63;3.20;;;;;;;15.64;38.01;99909.38;6977447;28;20293;-78
2024/02/20 15:34:11;;;;;;;7.63;3.60;;;;;;;15.69;37.93;99892.44;6973677;28;20328;-80
2024/02/20 15:37:33;;;;;;;12.83;5.57;;;;;;;15.87;38.03;99885.28;6977496;28;20250;-79
2024/02/20 15:40:56;;;;;;;8.23;3.60;;;;;;;15.86;37.92;99880.91;6979192;28;20582;-81
2024/02/20 15:44:17;;;;;;;13.13;5.63;;;;;;;15.99;37.96;99886.31;6980094;28;20709;-80
2024/02/20 15:47:40;;;;;;;7.80;3.03;;;;;;;15.64;38.40;99884.09;6978838;28;20267;-81
2024/02/20 15:51:02;;;;;;;6.27;3.00;;;;;;;15.77;38.59;99889.50;6980144;28;20226;-80